• Join FlightAware (Why Join?)
  • Login
  • US Flag 
04:44PM EST


 

Airport Tracker/Info


-or-


 

Live Flight TrackerFlight Track Log ✈ USC105 ✈ 26-Jun-2013 ✈ KBKL - KYIP

Flight Track Log - Related Links

Times and Time Zones

All times are in EDT time to prevent confusion due to time zone crossing. See the USC105 flight status page for this flight to view local times or setup timezone preferences in your user account.

Time Position Orientation Groundspeed Altitude Reporting Facility
EDT Latitude Longitude Course Direction KTS MPH feet Rate Location/Type
11:19PM 41.5186 -81.7203 286° West 125 144 1,400  Level Cleveland Center
11:20PM 41.5453 -81.7706 305° West 151 174 2,100 720 Climbing Cleveland Center
11:21PM 41.5697 -81.8100 310° West 149 171 3,000 780 Climbing Cleveland Center
11:22PM 41.5903 -81.8519 303° West 150 173 3,700 720 Climbing Cleveland Center
11:23PM 41.6167 -81.8997 306° West 157 181 4,400 720 Climbing Cleveland Center
11:24PM 41.6350 -81.9472 297° West 150 173 5,200 720 Climbing Cleveland Center
11:25PM 41.6553 -82.0006 297° West 155 178 5,900 360 Climbing Cleveland Center
11:26PM 41.6817 -82.0594 301° West 194 223 6,000  Climbing Cleveland Center
11:27PM 41.7036 -82.1239 295° West 189 217 6,000  Level Cleveland Center
11:28PM 41.7236 -82.1800 296° West 192 221 6,000  Level Cleveland Center
11:29PM 41.7519 -82.2447 300° West 191 220 6,000 -60 Level Cleveland Center
11:30PM 41.7758 -82.3150 295° West 192 221 5,900  Descending Cleveland Center
11:31PM 41.8003 -82.3658 303° West 191 220 6,000  Climbing Cleveland Center
11:32PM 41.8200 -82.4278 299° West 193 222 6,000  Level Cleveland Center
11:33PM 41.8461 -82.4869 301° West 194 223 6,000  Level Cleveland Center
11:34PM 41.8719 -82.5603 295° West 196 226 6,000  Level Cleveland Center
11:35PM 41.8981 -82.6253 298° West 196 226 6,000  Level Cleveland Center
11:36PM 41.9239 -82.6958 296° West 197 227 6,000  Level Cleveland Center
11:37PM 41.9475 -82.7608 296° West 197 227 6,000 -60 Level Cleveland Center
11:38PM 41.9694 -82.8117 300° West 195 224 5,900  Descending Cleveland Center
11:39PM 41.9975 -82.8769 300° West 193 222 6,000  Climbing Cleveland Center
11:39PM 42.0278 -82.9256 310° West 188 216 5,900  Descending Cleveland Center
11:41PM 42.0681 -82.9914 310° West 186 214 6,000  Climbing Cleveland Center
11:42PM 42.0983 -83.0403 310° West 186 214 5,900 -60 Descending Cleveland Center
11:43PM 42.1283 -83.0944 307° West 181 208 5,900 -180 Level Cleveland Center
11:44PM 42.1606 -83.1461 310° West 186 214 5,600 -420 Descending Cleveland Center
11:45PM 42.2028 -83.2153 310° West 193 222 5,000 -360 Descending Cleveland Center
11:46PM 42.2331 -83.2614 312° West 184 212 4,900 -540 Descending Cleveland Center
11:47PM 42.2669 -83.3244 306° West 192 221 4,000 -720 Descending Cleveland Center
11:48PM 42.2800 -83.3869 286° West 186 214 3,500 -780 Descending Cleveland Center
11:49PM 42.2889 -83.4575 280° West 195 224 2,500 -960 Descending Cleveland Center
11:50PM 42.2628 -83.5011 231° Southwest 166 191 1,700 -1,020 Descending Cleveland Center
11:52PM 42.2333 -83.5167 270° West  Level FlightAware Approximate
11:59PM 42.2393 -83.5310 270° West  Level Estimated
12:00AM 42.2393 -83.5310 270° West  Level Estimated